createdAt,value
2022-10-31T00:03:29.270Z,7.20
2022-10-31T00:07:33.683Z,6.15
2022-10-31T00:11:36.749Z,6.90
2022-10-31T00:15:41.647Z,6.93
2022-10-31T00:19:44.658Z,7.25
2022-10-31T00:23:49.143Z,6.88
2022-10-31T00:27:52.209Z,7.65
2022-10-31T00:31:55.304Z,7.15
2022-10-31T00:35:58.808Z,6.40
2022-10-31T00:40:04.982Z,6.68
2022-10-31T00:44:08.612Z,6.35
2022-10-31T00:48:11.965Z,6.90
2022-10-31T00:52:15.167Z,6.97
2022-10-31T00:56:20.480Z,6.85
2022-10-31T01:00:24.569Z,6.40
2022-10-31T01:04:27.918Z,6.63
2022-10-31T01:08:31.992Z,7.70
2022-10-31T01:12:39.797Z,6.85
2022-10-31T01:16:43.070Z,5.78
2022-10-31T01:20:46.073Z,6.38
2022-10-31T01:24:49.058Z,6.07
2022-10-31T01:28:55.162Z,5.70
2022-10-31T01:32:59.623Z,5.88
2022-10-31T01:37:02.915Z,6.18
2022-10-31T01:41:06.824Z,6.35
2022-10-31T01:45:13.403Z,6.47
2022-10-31T01:49:19.864Z,6.75
2022-10-31T01:53:26.868Z,6.28
2022-10-31T01:57:31.442Z,6.28
2022-10-31T02:01:36.216Z,6.35
2022-10-31T02:05:40.453Z,6.25
2022-10-31T02:09:45.386Z,6.15
2022-10-31T02:13:49.342Z,6.35
2022-10-31T02:17:53.982Z,6.65
2022-10-31T02:22:04.929Z,6.90
2022-10-31T02:26:29.889Z,6.75
2022-10-31T02:30:43.180Z,6.50
2022-10-31T02:34:58.166Z,6.30
2022-10-31T02:39:12.654Z,6.82
2022-10-31T02:43:26.850Z,6.53
2022-10-31T02:47:34.308Z,6.45
2022-10-31T02:51:40.757Z,6.65
2022-10-31T02:56:03.558Z,6.05
2022-10-31T03:00:09.201Z,6.47
2022-10-31T03:04:33.143Z,5.82
2022-10-31T03:08:48.527Z,6.05
2022-10-31T03:13:00.925Z,6.40
2022-10-31T03:17:10.251Z,5.57
2022-10-31T03:21:16.916Z,5.78
2022-10-31T03:25:21.543Z,6.28
2022-10-31T03:29:30.119Z,5.93
2022-10-31T03:33:36.830Z,5.47
2022-10-31T03:37:42.565Z,5.20
2022-10-31T03:41:58.356Z,5.63
2022-10-31T03:46:02.478Z,5.82
2022-10-31T03:50:06.952Z,5.75
2022-10-31T03:54:15.947Z,5.78
2022-10-31T03:58:26.275Z,6.05
2022-10-31T04:02:34.411Z,6.03
2022-10-31T04:06:41.115Z,5.82
2022-10-31T04:10:49.370Z,5.45
2022-10-31T04:14:55.465Z,5.93
2022-10-31T04:18:59.910Z,6.45
2022-10-31T04:23:03.813Z,6.13
2022-10-31T04:27:08.687Z,6.10
2022-10-31T04:31:14.235Z,5.93
2022-10-31T04:35:18.998Z,6.75
2022-10-31T04:39:25.826Z,6.13
2022-10-31T04:44:01.665Z,5.93
2022-10-31T04:48:06.560Z,5.25
2022-10-31T04:52:11.843Z,4.68
2022-10-31T04:56:15.239Z,5.05
2022-10-31T05:00:23.367Z,5.05
2022-10-31T05:04:28.739Z,3.63
2022-10-31T05:08:32.149Z,2.95
2022-10-31T05:12:36.071Z,3.35
2022-10-31T05:16:39.050Z,3.58
2022-10-31T05:21:06.875Z,3.67
2022-10-31T05:25:19.023Z,4.53
2022-10-31T05:29:22.101Z,3.97
2022-10-31T05:33:25.346Z,3.80
2022-10-31T05:38:05.222Z,4.35
2022-10-31T05:42:08.521Z,3.90
2022-10-31T05:46:11.771Z,4.80
2022-10-31T05:50:34.217Z,6.07
2022-10-31T05:54:47.094Z,5.50
2022-10-31T05:58:50.266Z,6.05
2022-10-31T06:03:00.029Z,5.72
2022-10-31T06:07:18.113Z,6.18
2022-10-31T06:11:22.648Z,5.55
2022-10-31T06:15:40.986Z,5.50
2022-10-31T06:19:44.847Z,4.63
2022-10-31T06:23:53.096Z,4.50
2022-10-31T06:28:35.695Z,3.95
2022-10-31T06:32:53.787Z,2.78
2022-10-31T06:36:58.220Z,3.00
2022-10-31T06:41:05.176Z,2.60
2022-10-31T06:45:25.908Z,3.00
2022-10-31T06:49:57.931Z,2.90
2022-10-31T06:54:02.449Z,2.85
2022-10-31T06:58:05.928Z,3.08
2022-10-31T07:02:12.939Z,3.00
2022-10-31T07:06:18.867Z,3.00
2022-10-31T07:10:23.022Z,3.45
2022-10-31T07:14:31.888Z,3.60
2022-10-31T07:18:37.384Z,3.50
2022-10-31T07:22:40.409Z,2.97
2022-10-31T07:26:47.000Z,3.30
2022-10-31T07:30:52.276Z,3.42
2022-10-31T07:34:58.346Z,4.00
2022-10-31T07:39:09.913Z,3.78
2022-10-31T07:43:14.598Z,4.20
2022-10-31T07:47:41.238Z,4.35
2022-10-31T07:52:04.273Z,4.82
2022-10-31T07:56:25.668Z,4.45
2022-10-31T08:00:30.633Z,5.63
2022-10-31T08:04:34.356Z,5.00
2022-10-31T08:08:57.928Z,5.35
2022-10-31T08:13:02.528Z,5.05
2022-10-31T08:17:06.786Z,5.78
2022-10-31T08:21:24.526Z,5.32
2022-10-31T08:25:37.151Z,5.57
2022-10-31T08:29:42.461Z,5.53
2022-10-31T08:33:45.918Z,5.97
2022-10-31T08:37:56.391Z,5.65
2022-10-31T08:42:03.800Z,6.03
2022-10-31T08:46:09.354Z,6.30
2022-10-31T08:50:14.816Z,6.30
2022-10-31T08:54:23.049Z,7.22
2022-10-31T08:58:27.740Z,6.72
2022-10-31T09:02:35.871Z,7.00
2022-10-31T09:06:46.408Z,7.05
2022-10-31T09:10:59.963Z,6.53
2022-10-31T09:15:45.614Z,7.22
2022-10-31T09:19:58.115Z,6.70
2022-10-31T09:24:07.982Z,7.00
2022-10-31T09:28:13.994Z,6.40
2022-10-31T09:32:18.575Z,6.70
2022-10-31T09:36:22.857Z,8.13
2022-10-31T09:40:32.182Z,6.90
2022-10-31T09:44:48.928Z,7.68
2022-10-31T09:49:26.759Z,7.07
2022-10-31T09:53:36.315Z,6.82
2022-10-31T09:57:41.137Z,8.00
2022-10-31T10:01:49.800Z,7.15
2022-10-31T10:06:04.007Z,6.80
2022-10-31T10:10:33.627Z,6.95
2022-10-31T10:15:15.741Z,6.93
2022-10-31T10:19:32.228Z,6.80
2022-10-31T10:23:47.308Z,7.68
2022-10-31T10:28:03.462Z,6.70
2022-10-31T10:32:13.344Z,6.93
2022-10-31T10:36:20.350Z,7.03
2022-10-31T10:40:27.144Z,7.30
2022-10-31T10:44:47.462Z,6.85
2022-10-31T10:48:57.831Z,7.50
2022-10-31T10:53:10.015Z,6.70
2022-10-31T10:57:33.182Z,7.85
2022-10-31T11:01:36.320Z,7.47
2022-10-31T11:05:43.641Z,7.13
2022-10-31T11:09:47.515Z,7.13
2022-10-31T11:13:57.461Z,9.35
2022-10-31T11:18:00.682Z,9.13
2022-10-31T11:22:09.744Z,7.15
2022-10-31T11:26:21.929Z,45.63
2022-10-31T11:30:26.356Z,29.27
2022-10-31T11:34:34.247Z,8.23
2022-10-31T11:38:42.879Z,7.45
2022-10-31T11:42:47.175Z,6.60
2022-10-31T11:46:54.493Z,7.78
2022-10-31T11:50:59.685Z,7.00
2022-10-31T11:55:15.658Z,6.78
2022-10-31T11:59:24.402Z,6.93
2022-10-31T12:03:51.057Z,6.85
2022-10-31T12:07:54.374Z,7.07
2022-10-31T12:12:45.581Z,6.88
2022-10-31T12:16:55.701Z,7.35
2022-10-31T12:21:11.726Z,7.35
2022-10-31T12:25:30.412Z,7.07
2022-10-31T12:29:49.726Z,7.30
2022-10-31T12:34:02.590Z,8.35
2022-10-31T12:38:23.956Z,7.45
2022-10-31T12:42:41.636Z,8.68
2022-10-31T12:47:01.576Z,9.18
2022-10-31T12:51:13.621Z,9.25
2022-10-31T12:55:32.512Z,9.25
2022-10-31T12:59:39.012Z,8.65
2022-10-31T13:03:49.231Z,9.00
2022-10-31T13:07:56.537Z,9.32
2022-10-31T13:12:06.682Z,9.18
2022-10-31T13:16:16.153Z,9.27
2022-10-31T13:20:25.580Z,8.38
2022-10-31T13:24:35.659Z,9.05
2022-10-31T13:28:45.676Z,9.07
2022-10-31T13:32:52.882Z,11.57
2022-10-31T13:37:06.468Z,9.25
2022-10-31T13:41:23.614Z,9.30
2022-10-31T13:45:29.372Z,11.00
2022-10-31T13:49:40.884Z,9.05
2022-10-31T13:53:47.105Z,8.82
2022-10-31T13:57:50.593Z,9.15
2022-10-31T14:02:01.220Z,8.70
2022-10-31T14:06:05.783Z,9.15
2022-10-31T14:10:23.599Z,9.13
2022-10-31T14:14:34.797Z,10.25
2022-10-31T14:18:41.564Z,9.80
2022-10-31T14:22:44.796Z,9.20
2022-10-31T14:26:55.215Z,9.85
2022-10-31T14:31:00.542Z,8.73
2022-10-31T14:35:05.869Z,8.75
2022-10-31T14:39:17.071Z,9.73
2022-10-31T14:43:50.116Z,9.00
2022-10-31T14:48:08.128Z,9.27
2022-10-31T14:52:15.536Z,8.85
2022-10-31T14:56:24.125Z,8.63
2022-10-31T15:00:27.249Z,8.85
2022-10-31T15:04:33.545Z,9.85
2022-10-31T15:08:42.587Z,9.88
2022-10-31T15:12:46.067Z,8.70
2022-10-31T15:16:49.171Z,8.93
2022-10-31T15:20:53.495Z,9.48
2022-10-31T15:24:58.250Z,9.25
2022-10-31T15:29:03.319Z,8.90
2022-10-31T15:33:21.850Z,9.27
2022-10-31T15:37:27.181Z,8.80
2022-10-31T15:41:35.301Z,9.32
2022-10-31T15:45:38.347Z,8.77
2022-10-31T15:49:44.242Z,8.60
2022-10-31T15:53:50.793Z,8.98
2022-10-31T15:57:58.941Z,7.70
2022-10-31T16:02:04.183Z,8.30
2022-10-31T16:06:07.649Z,8.25
2022-10-31T16:10:26.217Z,8.15
2022-10-31T16:14:37.855Z,8.35
2022-10-31T16:18:43.256Z,8.27
2022-10-31T16:22:51.785Z,7.22
2022-10-31T16:27:00.358Z,7.95
2022-10-31T16:31:15.707Z,7.95
2022-10-31T16:35:25.851Z,15.13
2022-10-31T16:39:29.076Z,8.70
2022-10-31T16:43:32.131Z,9.07
2022-10-31T16:47:36.697Z,6.28
2022-10-31T16:51:39.864Z,5.13
2022-10-31T16:55:47.283Z,5.38
2022-10-31T16:59:54.903Z,4.78
2022-10-31T17:03:59.360Z,5.95
2022-10-31T17:08:02.726Z,5.10
2022-10-31T17:12:21.368Z,5.53
2022-10-31T17:16:41.938Z,5.68
2022-10-31T17:21:23.083Z,4.28
2022-10-31T17:25:45.125Z,3.90
2022-10-31T17:29:57.438Z,4.13
2022-10-31T17:34:15.178Z,3.55
2022-10-31T17:38:36.666Z,3.70
2022-10-31T17:42:52.094Z,4.18
2022-10-31T17:46:55.122Z,3.95
2022-10-31T17:51:01.514Z,4.15
2022-10-31T17:55:06.762Z,4.30
2022-10-31T17:59:10.120Z,3.92
2022-10-31T18:03:13.158Z,3.30
2022-10-31T18:07:19.305Z,4.57
2022-10-31T18:11:23.720Z,4.10
2022-10-31T18:15:26.876Z,3.63
2022-10-31T18:19:29.906Z,3.70
2022-10-31T18:23:32.985Z,4.30
2022-10-31T18:27:37.551Z,3.75
2022-10-31T18:31:40.560Z,3.15
2022-10-31T18:35:43.663Z,3.90
2022-10-31T18:39:46.757Z,3.42
2022-10-31T18:43:52.136Z,3.40
2022-10-31T18:47:55.387Z,3.53
2022-10-31T18:51:58.420Z,3.60
2022-10-31T18:56:02.387Z,3.33
2022-10-31T19:00:08.518Z,3.55
2022-10-31T19:04:12.067Z,3.35
2022-10-31T19:08:15.541Z,3.50
2022-10-31T19:12:18.657Z,3.60
2022-10-31T19:16:23.471Z,3.53
2022-10-31T19:20:26.737Z,3.83
2022-10-31T19:24:30.830Z,4.00
2022-10-31T19:28:35.581Z,3.40
2022-10-31T19:32:40.036Z,3.22
2022-10-31T19:36:43.458Z,3.78
2022-10-31T19:40:46.549Z,3.28
2022-10-31T19:44:49.583Z,3.17
2022-10-31T19:48:54.233Z,3.42
2022-10-31T19:52:57.296Z,3.63
2022-10-31T19:57:00.378Z,3.70
2022-10-31T20:01:08.481Z,3.45
2022-10-31T20:05:13.190Z,3.65
2022-10-31T20:09:16.500Z,4.28
2022-10-31T20:13:19.502Z,4.30
2022-10-31T20:17:22.588Z,4.47
2022-10-31T20:21:29.189Z,4.47
2022-10-31T20:25:33.335Z,4.30
2022-10-31T20:29:36.520Z,4.20
2022-10-31T20:33:40.061Z,4.15
2022-10-31T20:37:44.820Z,4.32
2022-10-31T20:41:48.676Z,3.88
2022-10-31T20:45:52.044Z,4.40
2022-10-31T20:49:55.168Z,3.90
2022-10-31T20:54:00.760Z,3.90
2022-10-31T20:58:03.815Z,4.00
2022-10-31T21:02:07.184Z,4.30
2022-10-31T21:06:11.496Z,4.18
2022-10-31T21:10:16.116Z,4.03
2022-10-31T21:14:19.271Z,3.88
2022-10-31T21:18:22.968Z,4.30
2022-10-31T21:22:26.157Z,4.60
2022-10-31T21:26:34.493Z,4.25
2022-10-31T21:30:41.411Z,4.20
2022-10-31T21:34:44.519Z,4.45
2022-10-31T21:38:51.748Z,4.38
2022-10-31T21:42:56.734Z,3.75
2022-10-31T21:46:59.753Z,3.60
2022-10-31T21:51:06.494Z,3.33
2022-10-31T21:55:11.254Z,3.72
2022-10-31T21:59:15.663Z,3.38
2022-10-31T22:03:18.746Z,3.72
2022-10-31T22:07:21.766Z,3.53
2022-10-31T22:11:25.016Z,3.28
2022-10-31T22:15:29.445Z,3.30
2022-10-31T22:19:32.564Z,3.13
2022-10-31T22:23:36.455Z,3.13
2022-10-31T22:27:39.410Z,3.55
2022-10-31T22:31:45.842Z,3.70
2022-10-31T22:35:48.984Z,4.00
2022-10-31T22:39:52.174Z,3.50
2022-10-31T22:43:56.097Z,3.60
2022-10-31T22:48:00.579Z,3.65
2022-10-31T22:52:05.535Z,3.67
2022-10-31T22:56:10.733Z,3.85
2022-10-31T23:00:15.604Z,3.38
2022-10-31T23:04:20.611Z,3.70
2022-10-31T23:08:24.133Z,3.25
2022-10-31T23:12:44.721Z,3.53
2022-10-31T23:16:49.555Z,3.50
2022-10-31T23:20:55.405Z,3.30
2022-10-31T23:24:58.538Z,3.95
2022-10-31T23:29:00.586Z,3.50
2022-10-31T23:33:04.494Z,3.50
2022-10-31T23:37:09.984Z,2.88
2022-10-31T23:41:13.172Z,3.20
2022-10-31T23:45:16.740Z,3.00
2022-10-31T23:49:19.849Z,3.40
2022-10-31T23:53:24.540Z,2.90
2022-10-31T23:57:27.624Z,2.72
